sensor_id;sensor_type;location;lat;lon;timestamp;pressure;altitude;pressure_sealevel;temperature;humidity
76122;BME280;70471;53.200;6.080;2023-07-31T00:04:40;100769.50;;;21.04;55.63
76122;BME280;70471;53.200;6.080;2023-07-31T00:09:33;100753.50;;;21.15;55.59
76122;BME280;70471;53.200;6.080;2023-07-31T00:14:24;100765.16;;;21.25;54.80
76122;BME280;70471;53.200;6.080;2023-07-31T00:19:16;100758.69;;;21.30;54.70
76122;BME280;70471;53.200;6.080;2023-07-31T00:24:07;100747.78;;;21.34;54.38
76122;BME280;70471;53.200;6.080;2023-07-31T00:29:00;100751.09;;;21.36;54.29
76122;BME280;70471;53.200;6.080;2023-07-31T00:33:51;100750.78;;;21.37;54.38
76122;BME280;70471;53.200;6.080;2023-07-31T00:38:43;100751.91;;;21.36;54.16
76122;BME280;70471;53.200;6.080;2023-07-31T00:43:34;100742.91;;;21.31;54.56
76122;BME280;70471;53.200;6.080;2023-07-31T00:48:27;100737.47;;;21.25;54.98
76122;BME280;70471;53.200;6.080;2023-07-31T00:53:18;100734.06;;;21.28;54.91
76122;BME280;70471;53.200;6.080;2023-07-31T00:58:10;100728.72;;;21.32;54.39
76122;BME280;70471;53.200;6.080;2023-07-31T01:03:02;100732.00;;;21.34;54.75
76122;BME280;70471;53.200;6.080;2023-07-31T01:08:02;100723.38;;;21.36;54.37
76122;BME280;70471;53.200;6.080;2023-07-31T01:12:56;100723.38;;;21.36;54.48
76122;BME280;70471;53.200;6.080;2023-07-31T01:17:48;100719.09;;;21.30;55.04
76122;BME280;70471;53.200;6.080;2023-07-31T01:28:11;100711.41;;;21.26;55.21
76122;BME280;70471;53.200;6.080;2023-07-31T01:33:04;100707.59;;;21.22;55.09
76122;BME280;70471;53.200;6.080;2023-07-31T01:37:58;100717.69;;;21.18;55.39
76122;BME280;70471;53.200;6.080;2023-07-31T01:42:49;100705.38;;;20.97;56.39
76122;BME280;70471;53.200;6.080;2023-07-31T01:47:42;100705.81;;;20.76;57.06
76122;BME280;70471;53.200;6.080;2023-07-31T01:52:33;100703.28;;;20.66;57.01
76122;BME280;70471;53.200;6.080;2023-07-31T01:57:24;100692.31;;;20.61;56.70
76122;BME280;70471;53.200;6.080;2023-07-31T02:02:16;100691.06;;;20.67;56.83
76122;BME280;70471;53.200;6.080;2023-07-31T02:07:08;100679.38;;;20.70;56.17
76122;BME280;70471;53.200;6.080;2023-07-31T02:12:00;100674.25;;;20.77;56.09
76122;BME280;70471;53.200;6.080;2023-07-31T02:16:51;100665.22;;;20.85;55.93
76122;BME280;70471;53.200;6.080;2023-07-31T02:21:43;100660.38;;;20.91;55.41
76122;BME280;70471;53.200;6.080;2023-07-31T02:26:35;100662.19;;;20.96;55.79
76122;BME280;70471;53.200;6.080;2023-07-31T02:31:27;100660.75;;;20.98;55.18
76122;BME280;70471;53.200;6.080;2023-07-31T02:36:18;100656.88;;;20.99;55.66
76122;BME280;70471;53.200;6.080;2023-07-31T02:41:10;100648.75;;;21.03;55.06
76122;BME280;70471;53.200;6.080;2023-07-31T02:46:02;100643.19;;;21.03;55.38
76122;BME280;70471;53.200;6.080;2023-07-31T02:50:54;100642.09;;;21.04;55.48
76122;BME280;70471;53.200;6.080;2023-07-31T02:55:45;100639.31;;;21.04;55.02
76122;BME280;70471;53.200;6.080;2023-07-31T03:00:41;100638.16;;;21.05;55.13
76122;BME280;70471;53.200;6.080;2023-07-31T03:05:34;100636.53;;;21.04;55.28
76122;BME280;70471;53.200;6.080;2023-07-31T03:10:26;100643.50;;;21.01;55.34
76122;BME280;70471;53.200;6.080;2023-07-31T03:15:17;100640.44;;;21.03;55.41
76122;BME280;70471;53.200;6.080;2023-07-31T03:20:09;100645.47;;;21.01;55.08
76122;BME280;70471;53.200;6.080;2023-07-31T03:25:02;100640.25;;;20.99;55.29
76122;BME280;70471;53.200;6.080;2023-07-31T03:29:53;100642.81;;;20.96;55.73
76122;BME280;70471;53.200;6.080;2023-07-31T03:34:45;100631.72;;;20.96;55.09
76122;BME280;70471;53.200;6.080;2023-07-31T03:39:36;100621.97;;;20.98;54.91
76122;BME280;70471;53.200;6.080;2023-07-31T03:44:29;100609.47;;;21.01;54.77
76122;BME280;70471;53.200;6.080;2023-07-31T03:49:21;100609.16;;;21.02;55.23
76122;BME280;70471;53.200;6.080;2023-07-31T03:54:12;100605.22;;;21.03;55.04
76122;BME280;70471;53.200;6.080;2023-07-31T03:59:04;100609.97;;;21.03;55.21
76122;BME280;70471;53.200;6.080;2023-07-31T04:03:57;100598.88;;;21.03;54.98
76122;BME280;70471;53.200;6.080;2023-07-31T04:08:48;100590.88;;;21.01;54.97
76122;BME280;70471;53.200;6.080;2023-07-31T04:13:40;100596.75;;;21.00;55.13
76122;BME280;70471;53.200;6.080;2023-07-31T04:18:31;100587.63;;;20.99;55.24
76122;BME280;70471;53.200;6.080;2023-07-31T04:23:24;100586.78;;;20.99;55.03
76122;BME280;70471;53.200;6.080;2023-07-31T04:28:15;100575.69;;;20.99;54.69
76122;BME280;70471;53.200;6.080;2023-07-31T04:33:07;100584.53;;;21.01;54.80
76122;BME280;70471;53.200;6.080;2023-07-31T04:37:58;100584.53;;;21.01;54.60
76122;BME280;70471;53.200;6.080;2023-07-31T04:42:51;100579.75;;;20.92;55.46
76122;BME280;70471;53.200;6.080;2023-07-31T04:47:42;100580.47;;;20.84;55.28
76122;BME280;70471;53.200;6.080;2023-07-31T04:52:34;100574.75;;;20.81;55.54
76122;BME280;70471;53.200;6.080;2023-07-31T04:57:25;100569.34;;;20.76;55.82
76122;BME280;70471;53.200;6.080;2023-07-31T05:02:18;100580.41;;;20.53;57.05
76122;BME280;70471;53.200;6.080;2023-07-31T05:07:09;100570.47;;;20.38;57.98
76122;BME280;70471;53.200;6.080;2023-07-31T05:12:01;100568.09;;;20.17;58.29
76122;BME280;70471;53.200;6.080;2023-07-31T05:16:52;100567.00;;;20.05;58.96
76122;BME280;70471;53.200;6.080;2023-07-31T05:21:45;100553.16;;;19.91;59.42
76122;BME280;70471;53.200;6.080;2023-07-31T05:26:36;100551.22;;;19.63;59.97
76122;BME280;70471;53.200;6.080;2023-07-31T05:31:28;100549.44;;;19.54;60.54
76122;BME280;70471;53.200;6.080;2023-07-31T05:36:20;100544.16;;;19.71;59.06
76122;BME280;70471;53.200;6.080;2023-07-31T05:41:12;100530.22;;;19.76;59.62
76122;BME280;70471;53.200;6.080;2023-07-31T05:46:04;100535.88;;;19.71;59.46
76122;BME280;70471;53.200;6.080;2023-07-31T05:50:57;100530.03;;;19.73;59.82
76122;BME280;70471;53.200;6.080;2023-07-31T05:55:48;100529.63;;;19.79;59.25
76122;BME280;70471;53.200;6.080;2023-07-31T06:00:41;100541.41;;;19.85;59.91
76122;BME280;70471;53.200;6.080;2023-07-31T06:05:32;100525.13;;;19.70;59.97
76122;BME280;70471;53.200;6.080;2023-07-31T06:10:24;100517.31;;;19.72;60.33
76122;BME280;70471;53.200;6.080;2023-07-31T06:15:16;100527.31;;;19.54;61.50
76122;BME280;70471;53.200;6.080;2023-07-31T06:20:10;100529.16;;;19.44;62.04
76122;BME280;70471;53.200;6.080;2023-07-31T06:25:01;100516.66;;;19.33;62.16
76122;BME280;70471;53.200;6.080;2023-07-31T06:29:53;100514.59;;;19.25;63.10
76122;BME280;70471;53.200;6.080;2023-07-31T06:34:44;100514.16;;;19.18;63.23
76122;BME280;70471;53.200;6.080;2023-07-31T06:39:37;100502.63;;;19.16;63.52
76122;BME280;70471;53.200;6.080;2023-07-31T06:44:28;100494.94;;;19.13;63.12
76122;BME280;70471;53.200;6.080;2023-07-31T06:49:20;100490.84;;;19.24;62.89
76122;BME280;70471;53.200;6.080;2023-07-31T06:54:11;100482.91;;;19.36;62.19
76122;BME280;70471;53.200;6.080;2023-07-31T06:59:04;100480.25;;;19.31;62.44
76122;BME280;70471;53.200;6.080;2023-07-31T07:03:56;100472.34;;;19.38;61.78
76122;BME280;70471;53.200;6.080;2023-07-31T07:08:47;100470.09;;;19.54;60.90
76122;BME280;70471;53.200;6.080;2023-07-31T07:13:38;100459.59;;;19.70;60.71
76122;BME280;70471;53.200;6.080;2023-07-31T07:18:31;100454.84;;;19.84;60.80
76122;BME280;70471;53.200;6.080;2023-07-31T07:23:23;100448.00;;;19.96;60.62
76122;BME280;70471;53.200;6.080;2023-07-31T07:28:14;100447.25;;;20.04;59.89
76122;BME280;70471;53.200;6.080;2023-07-31T07:33:06;100442.94;;;20.12;59.20
76122;BME280;70471;53.200;6.080;2023-07-31T07:37:58;100439.75;;;20.18;58.64
76122;BME280;70471;53.200;6.080;2023-07-31T07:42:50;100426.28;;;20.26;58.56
76122;BME280;70471;53.200;6.080;2023-07-31T07:47:42;100431.72;;;20.31;58.96
76122;BME280;70471;53.200;6.080;2023-07-31T07:52:33;100431.94;;;20.34;58.55
76122;BME280;70471;53.200;6.080;2023-07-31T07:57:26;100435.69;;;20.38;58.41
76122;BME280;70471;53.200;6.080;2023-07-31T08:02:18;100424.84;;;20.42;57.86
76122;BME280;70471;53.200;6.080;2023-07-31T08:07:10;100417.84;;;20.45;58.23
76122;BME280;70471;53.200;6.080;2023-07-31T08:12:02;100418.03;;;20.48;57.63
76122;BME280;70471;53.200;6.080;2023-07-31T08:16:55;100416.78;;;20.54;57.86
76122;BME280;70471;53.200;6.080;2023-07-31T08:21:47;100411.91;;;20.60;57.39
76122;BME280;70471;53.200;6.080;2023-07-31T08:26:38;100406.06;;;20.62;57.35
76122;BME280;70471;53.200;6.080;2023-07-31T08:31:29;100402.66;;;20.65;57.56
76122;BME280;70471;53.200;6.080;2023-07-31T08:36:22;100397.84;;;20.70;57.48
76122;BME280;70471;53.200;6.080;2023-07-31T08:41:13;100393.91;;;20.71;57.01
76122;BME280;70471;53.200;6.080;2023-07-31T08:46:07;100390.19;;;20.76;57.36
76122;BME280;70471;53.200;6.080;2023-07-31T08:50:58;100393.66;;;20.82;57.22
76122;BME280;70471;53.200;6.080;2023-07-31T08:55:51;100399.84;;;20.87;56.76
76122;BME280;70471;53.200;6.080;2023-07-31T09:00:46;100392.56;;;20.91;57.17
76122;BME280;70471;53.200;6.080;2023-07-31T09:05:38;100386.38;;;20.95;56.61
76122;BME280;70471;53.200;6.080;2023-07-31T09:10:33;100381.34;;;20.97;56.72
76122;BME280;70471;53.200;6.080;2023-07-31T09:15:25;100383.47;;;21.00;57.00
76122;BME280;70471;53.200;6.080;2023-07-31T09:20:20;100384.47;;;21.04;57.09
76122;BME280;70471;53.200;6.080;2023-07-31T09:25:15;100376.66;;;21.06;56.81
76122;BME280;70471;53.200;6.080;2023-07-31T09:30:08;100376.22;;;21.13;56.59
76122;BME280;70471;53.200;6.080;2023-07-31T09:35:00;100372.97;;;21.19;56.73
76122;BME280;70471;53.200;6.080;2023-07-31T09:39:52;100378.41;;;21.24;56.56
76122;BME280;70471;53.200;6.080;2023-07-31T09:44:48;100371.53;;;21.22;58.00
76122;BME280;70471;53.200;6.080;2023-07-31T09:49:45;100359.31;;;21.23;57.93
76122;BME280;70471;53.200;6.080;2023-07-31T09:54:37;100355.06;;;21.25;57.96
76122;BME280;70471;53.200;6.080;2023-07-31T09:59:29;100359.50;;;21.35;57.33
76122;BME280;70471;53.200;6.080;2023-07-31T10:04:20;100363.09;;;21.36;57.22
76122;BME280;70471;53.200;6.080;2023-07-31T10:09:18;100355.28;;;21.38;57.96
76122;BME280;70471;53.200;6.080;2023-07-31T10:14:12;100350.41;;;21.43;58.11
76122;BME280;70471;53.200;6.080;2023-07-31T10:19:05;100355.31;;;21.55;58.08
76122;BME280;70471;53.200;6.080;2023-07-31T10:23:57;100359.25;;;21.63;58.57
76122;BME280;70471;53.200;6.080;2023-07-31T10:28:50;100356.78;;;21.70;59.86
76122;BME280;70471;53.200;6.080;2023-07-31T10:33:45;100353.69;;;21.72;59.94
76122;BME280;70471;53.200;6.080;2023-07-31T10:38:37;100350.91;;;21.72;59.75
76122;BME280;70471;53.200;6.080;2023-07-31T10:43:28;100337.06;;;21.72;59.48
76122;BME280;70471;53.200;6.080;2023-07-31T10:48:20;100356.97;;;21.74;59.65
76122;BME280;70471;53.200;6.080;2023-07-31T10:53:22;100355.81;;;21.75;59.81
76122;BME280;70471;53.200;6.080;2023-07-31T10:58:18;100363.50;;;21.78;59.45
76122;BME280;70471;53.200;6.080;2023-07-31T11:03:12;100360.59;;;21.83;59.28
76122;BME280;70471;53.200;6.080;2023-07-31T11:08:10;100367.13;;;21.87;59.33
76122;BME280;70471;53.200;6.080;2023-07-31T11:13:05;100361.25;;;21.89;59.14
76122;BME280;70471;53.200;6.080;2023-07-31T11:17:56;100358.63;;;21.92;58.93
76122;BME280;70471;53.200;6.080;2023-07-31T11:22:49;100357.66;;;21.97;59.28
76122;BME280;70471;53.200;6.080;2023-07-31T11:27:40;100375.78;;;21.94;59.10
76122;BME280;70471;53.200;6.080;2023-07-31T11:32:36;100368.09;;;21.91;59.25
76122;BME280;70471;53.200;6.080;2023-07-31T11:37:39;100349.97;;;21.94;58.93
76122;BME280;70471;53.200;6.080;2023-07-31T11:42:30;100339.06;;;21.97;58.45
76122;BME280;70471;53.200;6.080;2023-07-31T11:47:22;100343.97;;;22.01;58.25
76122;BME280;70471;53.200;6.080;2023-07-31T11:52:15;100355.22;;;22.04;57.73
76122;BME280;70471;53.200;6.080;2023-07-31T11:57:07;100348.19;;;22.07;57.03
76122;BME280;70471;53.200;6.080;2023-07-31T12:01:59;100350.28;;;22.10;56.99
76122;BME280;70471;53.200;6.080;2023-07-31T12:06:52;100345.06;;;22.17;55.99
76122;BME280;70471;53.200;6.080;2023-07-31T12:11:46;100335.63;;;22.18;55.64
76122;BME280;70471;53.200;6.080;2023-07-31T12:16:37;100349.81;;;22.16;55.47
76122;BME280;70471;53.200;6.080;2023-07-31T12:21:29;100334.97;;;22.12;55.61
76122;BME280;70471;53.200;6.080;2023-07-31T12:26:20;100342.31;;;22.17;55.62
76122;BME280;70471;53.200;6.080;2023-07-31T12:31:16;100348.34;;;22.19;55.35
76122;BME280;70471;53.200;6.080;2023-07-31T12:36:10;100324.53;;;22.09;55.19
76122;BME280;70471;53.200;6.080;2023-07-31T12:41:02;100336.56;;;22.22;55.21
76122;BME280;70471;53.200;6.080;2023-07-31T12:45:55;100348.19;;;22.24;54.59
76122;BME280;70471;53.200;6.080;2023-07-31T12:50:48;100335.75;;;22.30;53.67
76122;BME280;70471;53.200;6.080;2023-07-31T12:55:40;100347.34;;;22.32;53.92
76122;BME280;70471;53.200;6.080;2023-07-31T13:00:31;100342.28;;;22.34;53.79
76122;BME280;70471;53.200;6.080;2023-07-31T13:05:23;100331.97;;;22.35;53.77
76122;BME280;70471;53.200;6.080;2023-07-31T13:10:16;100320.06;;;22.34;53.92
76122;BME280;70471;53.200;6.080;2023-07-31T13:15:08;100315.31;;;22.35;54.98
76122;BME280;70471;53.200;6.080;2023-07-31T13:19:59;100327.09;;;22.32;56.04
76122;BME280;70471;53.200;6.080;2023-07-31T13:24:51;100321.53;;;22.32;56.61
76122;BME280;70471;53.200;6.080;2023-07-31T13:29:44;100326.09;;;22.36;56.81
76122;BME280;70471;53.200;6.080;2023-07-31T13:34:35;100329.88;;;22.32;56.89
76122;BME280;70471;53.200;6.080;2023-07-31T13:39:26;100325.47;;;22.31;56.85
76122;BME280;70471;53.200;6.080;2023-07-31T13:44:18;100346.19;;;22.33;56.43
76122;BME280;70471;53.200;6.080;2023-07-31T15:17:21;100269.63;;;22.32;57.08
76122;BME280;70471;53.200;6.080;2023-07-31T15:22:13;100249.03;;;22.33;56.58
76122;BME280;70471;53.200;6.080;2023-07-31T15:27:05;100243.16;;;22.35;56.75
76122;BME280;70471;53.200;6.080;2023-07-31T15:31:58;100219.97;;;22.40;56.92
76122;BME280;70471;53.200;6.080;2023-07-31T15:36:51;100218.81;;;22.41;57.07
76122;BME280;70471;53.200;6.080;2023-07-31T15:41:42;100217.34;;;22.43;56.65
76122;BME280;70471;53.200;6.080;2023-07-31T15:46:34;100223.09;;;22.47;56.68
76122;BME280;70471;53.200;6.080;2023-07-31T15:51:26;100209.69;;;22.49;56.35
76122;BME280;70471;53.200;6.080;2023-07-31T15:56:19;100209.19;;;22.47;56.65
76122;BME280;70471;53.200;6.080;2023-07-31T16:01:10;100198.09;;;22.47;56.76
76122;BME280;70471;53.200;6.080;2023-07-31T16:06:02;100190.25;;;22.49;56.34
76122;BME280;70471;53.200;6.080;2023-07-31T16:10:54;100181.91;;;22.49;56.81
76122;BME280;70471;53.200;6.080;2023-07-31T16:15:47;100191.56;;;22.51;56.93
76122;BME280;70471;53.200;6.080;2023-07-31T16:20:39;100188.78;;;22.51;56.28
76122;BME280;70471;53.200;6.080;2023-07-31T16:25:30;100178.00;;;22.50;56.08
76122;BME280;70471;53.200;6.080;2023-07-31T16:30:21;100178.00;;;22.50;56.03
76122;BME280;70471;53.200;6.080;2023-07-31T16:35:14;100175.56;;;22.48;55.79
76122;BME280;70471;53.200;6.080;2023-07-31T16:40:07;100163.28;;;22.49;55.86
76122;BME280;70471;53.200;6.080;2023-07-31T16:44:58;100156.59;;;22.50;55.74
76122;BME280;70471;53.200;6.080;2023-07-31T16:49:50;100152.19;;;22.49;55.43
76122;BME280;70471;53.200;6.080;2023-07-31T16:54:43;100138.34;;;22.41;55.60
76122;BME280;70471;53.200;6.080;2023-07-31T16:59:34;100139.13;;;22.50;55.69
76122;BME280;70471;53.200;6.080;2023-07-31T17:04:26;100112.38;;;22.36;55.55
76122;BME280;70471;53.200;6.080;2023-07-31T17:09:17;100111.38;;;22.50;55.81
76122;BME280;70471;53.200;6.080;2023-07-31T17:14:10;100101.41;;;22.49;55.84
76122;BME280;70471;53.200;6.080;2023-07-31T17:19:01;100097.00;;;22.48;55.73
76122;BME280;70471;53.200;6.080;2023-07-31T17:23:53;100084.94;;;22.44;55.53
76122;BME280;70471;53.200;6.080;2023-07-31T17:28:45;100096.50;;;22.46;55.62
76122;BME280;70471;53.200;6.080;2023-07-31T17:33:38;100098.97;;;22.47;55.40
76122;BME280;70471;53.200;6.080;2023-07-31T17:38:29;100090.44;;;22.52;55.73
76122;BME280;70471;53.200;6.080;2023-07-31T17:43:21;100086.19;;;22.55;56.02
76122;BME280;70471;53.200;6.080;2023-07-31T17:48:12;100081.59;;;22.59;55.85
76122;BME280;70471;53.200;6.080;2023-07-31T17:53:05;100070.16;;;22.61;55.81
76122;BME280;70471;53.200;6.080;2023-07-31T17:57:56;100079.28;;;22.61;55.70
76122;BME280;70471;53.200;6.080;2023-07-31T18:02:48;100052.19;;;22.58;55.64
76122;BME280;70471;53.200;6.080;2023-07-31T18:07:39;100054.75;;;22.63;55.69
76122;BME280;70471;53.200;6.080;2023-07-31T18:12:32;100054.44;;;22.65;55.85
76122;BME280;70471;53.200;6.080;2023-07-31T18:17:24;100041.34;;;22.65;55.95
76122;BME280;70471;53.200;6.080;2023-07-31T18:22:15;100057.19;;;22.65;55.92
76122;BME280;70471;53.200;6.080;2023-07-31T18:27:08;100054.09;;;22.66;55.84
76122;BME280;70471;53.200;6.080;2023-07-31T18:32:01;100057.34;;;22.68;55.68
76122;BME280;70471;53.200;6.080;2023-07-31T18:36:52;100028.41;;;22.69;55.78
76122;BME280;70471;53.200;6.080;2023-07-31T18:41:44;100010.63;;;22.70;55.55
76122;BME280;70471;53.200;6.080;2023-07-31T18:46:35;100026.78;;;22.68;55.43
76122;BME280;70471;53.200;6.080;2023-07-31T18:51:28;100022.66;;;22.75;55.58
76122;BME280;70471;53.200;6.080;2023-07-31T18:56:20;100024.28;;;22.76;55.40
76122;BME280;70471;53.200;6.080;2023-07-31T19:01:12;99996.63;;;22.79;55.39
76122;BME280;70471;53.200;6.080;2023-07-31T19:06:04;100003.50;;;22.82;55.39
76122;BME280;70471;53.200;6.080;2023-07-31T19:10:57;99993.19;;;22.82;55.27
76122;BME280;70471;53.200;6.080;2023-07-31T19:15:49;99995.28;;;22.85;55.24
76122;BME280;70471;53.200;6.080;2023-07-31T19:20:41;99988.03;;;22.93;54.92
76122;BME280;70471;53.200;6.080;2023-07-31T19:25:33;99952.34;;;22.83;55.44
76122;BME280;70471;53.200;6.080;2023-07-31T19:30:28;99996.13;;;22.98;55.32
76122;BME280;70471;53.200;6.080;2023-07-31T19:35:21;99972.75;;;22.99;55.03
76122;BME280;70471;53.200;6.080;2023-07-31T19:40:13;99978.09;;;23.04;55.05
76122;BME280;70471;53.200;6.080;2023-07-31T19:45:05;99980.06;;;23.04;54.91
76122;BME280;70471;53.200;6.080;2023-07-31T19:49:58;99966.06;;;23.00;54.96
76122;BME280;70471;53.200;6.080;2023-07-31T19:54:50;99960.13;;;23.02;54.96
76122;BME280;70471;53.200;6.080;2023-07-31T19:59:41;99977.88;;;23.10;54.67
76122;BME280;70471;53.200;6.080;2023-07-31T20:04:33;99970.03;;;23.12;54.47
76122;BME280;70471;53.200;6.080;2023-07-31T20:09:26;99956.59;;;23.14;54.87
76122;BME280;70471;53.200;6.080;2023-07-31T20:14:18;99925.28;;;22.92;54.32
76122;BME280;70471;53.200;6.080;2023-07-31T20:19:10;99945.28;;;23.19;53.86
76122;BME280;70471;53.200;6.080;2023-07-31T20:24:01;99937.63;;;23.16;53.77
76122;BME280;70471;53.200;6.080;2023-07-31T20:28:54;99939.25;;;23.17;53.64
76122;BME280;70471;53.200;6.080;2023-07-31T20:33:45;99947.13;;;23.15;53.84
76122;BME280;70471;53.200;6.080;2023-07-31T20:38:37;99937.91;;;23.02;53.60
76122;BME280;70471;53.200;6.080;2023-07-31T20:43:28;99935.75;;;23.07;53.81
76122;BME280;70471;53.200;6.080;2023-07-31T20:48:21;99916.97;;;23.04;53.88
76122;BME280;70471;53.200;6.080;2023-07-31T20:53:13;99912.09;;;23.01;53.82
76122;BME280;70471;53.200;6.080;2023-07-31T20:58:05;99907.25;;;22.98;53.94
76122;BME280;70471;53.200;6.080;2023-07-31T21:02:56;99904.81;;;22.97;54.05
76122;BME280;70471;53.200;6.080;2023-07-31T21:07:49;99899.59;;;22.95;53.96
76122;BME280;70471;53.200;6.080;2023-07-31T21:12:40;99898.00;;;22.94;53.72
76122;BME280;70471;53.200;6.080;2023-07-31T21:17:32;99890.00;;;22.93;53.75
76122;BME280;70471;53.200;6.080;2023-07-31T21:22:23;99876.44;;;22.91;53.98
76122;BME280;70471;53.200;6.080;2023-07-31T21:27:17;99858.50;;;22.88;53.99
76122;BME280;70471;53.200;6.080;2023-07-31T21:32:08;99860.47;;;22.88;53.74
76122;BME280;70471;53.200;6.080;2023-07-31T21:37:00;99858.63;;;22.80;53.83
76122;BME280;70471;53.200;6.080;2023-07-31T21:41:52;99836.13;;;22.73;53.94
76122;BME280;70471;53.200;6.080;2023-07-31T21:46:44;99845.41;;;22.77;54.17
76122;BME280;70471;53.200;6.080;2023-07-31T21:51:36;99848.19;;;22.77;53.83
76122;BME280;70471;53.200;6.080;2023-07-31T21:56:27;99846.56;;;22.76;53.71
76122;BME280;70471;53.200;6.080;2023-07-31T22:01:19;99840.19;;;22.75;54.01
76122;BME280;70471;53.200;6.080;2023-07-31T22:06:12;99846.09;;;22.74;53.85
76122;BME280;70471;53.200;6.080;2023-07-31T22:11:03;99832.56;;;22.72;54.05
76122;BME280;70471;53.200;6.080;2023-07-31T22:15:55;99833.72;;;22.71;53.88
76122;BME280;70471;53.200;6.080;2023-07-31T22:20:48;99819.38;;;22.69;53.96
76122;BME280;70471;53.200;6.080;2023-07-31T22:25:41;99808.59;;;22.67;54.18
76122;BME280;70471;53.200;6.080;2023-07-31T22:30:32;99816.94;;;22.67;53.93
76122;BME280;70471;53.200;6.080;2023-07-31T22:35:23;99808.13;;;22.65;53.89
76122;BME280;70471;53.200;6.080;2023-07-31T22:40:15;99788.22;;;22.63;53.79
76122;BME280;70471;53.200;6.080;2023-07-31T22:45:10;99789.06;;;22.64;53.78
76122;BME280;70471;53.200;6.080;2023-07-31T22:50:01;99793.31;;;22.61;53.92
76122;BME280;70471;53.200;6.080;2023-07-31T22:54:52;99776.19;;;22.59;53.99
76122;BME280;70471;53.200;6.080;2023-07-31T22:59:44;99778.97;;;22.59;53.92
76122;BME280;70471;53.200;6.080;2023-07-31T23:04:38;99780.94;;;22.59;53.82
76122;BME280;70471;53.200;6.080;2023-07-31T23:09:29;99776.91;;;22.56;54.05
76122;BME280;70471;53.200;6.080;2023-07-31T23:14:21;99770.50;;;22.56;53.94
76122;BME280;70471;53.200;6.080;2023-07-31T23:19:12;99765.31;;;22.54;54.04
76122;BME280;70471;53.200;6.080;2023-07-31T23:24:05;99763.69;;;22.53;53.86
76122;BME280;70471;53.200;6.080;2023-07-31T23:28:57;99743.53;;;22.44;54.06
76122;BME280;70471;53.200;6.080;2023-07-31T23:33:50;99754.88;;;22.51;53.91
76122;BME280;70471;53.200;6.080;2023-07-31T23:38:41;99753.28;;;22.50;53.86
76122;BME280;70471;53.200;6.080;2023-07-31T23:43:34;99747.00;;;22.41;53.81
76122;BME280;70471;53.200;6.080;2023-07-31T23:48:26;99758.34;;;22.48;53.85
76122;BME280;70471;53.200;6.080;2023-07-31T23:53:18;99765.38;;;22.45;53.85
76122;BME280;70471;53.200;6.080;2023-07-31T23:58:09;99751.50;;;22.45;53.89
